Ampton, United Kingdom
Current Conditions -  °F | °C
As of 8:58 PM on Monday 22 Dec 2014 (Local Time) from EGUL Reporting Station
Overcast Overcast  
Wind Chill: 11°   Ceiling: 2800
Heat Index: 11°   Visibility: 6mi
Dew Point: 12°   Wind: 21mph
Humidity: 100%   Direction: 230°SW
Pressure: 29.94"   Gusts: 32mph
Location:  52.33°N, 0.85°E
Report Text: EGUL 222058Z AUTO 23018G28KT 9999 OVC028 12/12 A2994 RMK AO2 PK WND 24029/10 SLP142 T01150115 51005
Loading
Personal Weather Stations






























Interactive Weather Map New forecast layout! Learn more

10-Day Weather Forecast

Advertisements
Track Severe Weather on mobile